Terminal Aerodrome Forecast
Issued by NWS Detroit/Pontiac, MI

Home | Current Version | Previous Version | Text Only | Print | Product List | Glossary On
Versions: 1 2 3 4 5 6 7 8 9 10 11 12 13 14 15 16 17 18 19 20 21 22 23 24 25 26 27 28 29 30 31 32 33 34 35 36 37 38 39 40 41 42 43 44 45 46 47 48 49
000
FTUS43 KDTX 191132
TAFDTW
TAF
KDTW 191132Z 1912/2018 00000KT 3SM BR SCT060 BKN250
     FM191300 18005KT P6SM SCT060 BKN250
     FM192000 14008KT 6SM -SHRA OVC060
     FM200200 07008KT P6SM OVC040
     FM200700 05008KT 3SM -RA BR OVC007
     FM201000 03007KT 1SM RA BR OVC004
     FM201400 36010KT 3SM -RA BR OVC007=

USA.gov is the U.S. government's official web portal to all federal, state and local government web resources and services.